sensor_id;sensor_type;location;lat;lon;timestamp;temperature;humidity
66102;HTU21D;52883;51.094;5.880;2023-03-01T00:01:28;-2.00;118.99
66102;HTU21D;52883;51.094;5.880;2023-03-01T00:03:54;-2.19;118.99
66102;HTU21D;52883;51.094;5.880;2023-03-01T00:06:21;-2.32;118.99
66102;HTU21D;52883;51.094;5.880;2023-03-01T00:08:47;-2.31;118.99
66102;HTU21D;52883;51.094;5.880;2023-03-01T00:11:25;-2.00;118.99
66102;HTU21D;52883;51.094;5.880;2023-03-01T00:13:54;-1.79;118.99
66102;HTU21D;52883;51.094;5.880;2023-03-01T00:16:23;-1.70;118.99
66102;HTU21D;52883;51.094;5.880;2023-03-01T00:18:49;-1.55;118.99
66102;HTU21D;52883;51.094;5.880;2023-03-01T00:21:16;-1.57;118.99
66102;HTU21D;52883;51.094;5.880;2023-03-01T00:23:42;-1.49;118.99
66102;HTU21D;52883;51.094;5.880;2023-03-01T00:26:10;-1.45;118.99
66102;HTU21D;52883;51.094;5.880;2023-03-01T00:28:38;-1.46;118.99
66102;HTU21D;52883;51.094;5.880;2023-03-01T00:31:10;-1.43;118.99
66102;HTU21D;52883;51.094;5.880;2023-03-01T00:33:37;-1.41;118.99
66102;HTU21D;52883;51.094;5.880;2023-03-01T00:36:05;-1.35;118.99
66102;HTU21D;52883;51.094;5.880;2023-03-01T00:38:34;-1.36;118.99
66102;HTU21D;52883;51.094;5.880;2023-03-01T00:41:08;-1.36;118.99
66102;HTU21D;52883;51.094;5.880;2023-03-01T00:43:34;-1.35;118.99
66102;HTU21D;52883;51.094;5.880;2023-03-01T00:46:13;-1.32;118.99
66102;HTU21D;52883;51.094;5.880;2023-03-01T00:48:39;-1.30;118.99
66102;HTU21D;52883;51.094;5.880;2023-03-01T00:51:19;-1.26;118.99
66102;HTU21D;52883;51.094;5.880;2023-03-01T00:53:47;-1.23;118.99
66102;HTU21D;52883;51.094;5.880;2023-03-01T00:56:14;-1.29;118.99
66102;HTU21D;52883;51.094;5.880;2023-03-01T00:58:40;-1.35;118.99
66102;HTU21D;52883;51.094;5.880;2023-03-01T01:01:12;-1.42;118.99
66102;HTU21D;52883;51.094;5.880;2023-03-01T01:03:54;-1.43;118.99
66102;HTU21D;52883;51.094;5.880;2023-03-01T01:06:27;-1.43;118.99
66102;HTU21D;52883;51.094;5.880;2023-03-01T01:08:54;-1.45;118.99
66102;HTU21D;52883;51.094;5.880;2023-03-01T01:11:21;-1.55;118.99
66102;HTU21D;52883;51.094;5.880;2023-03-01T01:13:47;-1.59;118.99
66102;HTU21D;52883;51.094;5.880;2023-03-01T01:16:18;-1.69;118.99
66102;HTU21D;52883;51.094;5.880;2023-03-01T01:18:44;-1.76;118.99
66102;HTU21D;52883;51.094;5.880;2023-03-01T01:21:13;-1.88;118.99
66102;HTU21D;52883;51.094;5.880;2023-03-01T01:23:40;-1.97;118.99
66102;HTU21D;52883;51.094;5.880;2023-03-01T01:26:09;-2.06;118.99
66102;HTU21D;52883;51.094;5.880;2023-03-01T01:28:35;-2.10;118.99
66102;HTU21D;52883;51.094;5.880;2023-03-01T01:31:02;-2.15;118.99
66102;HTU21D;52883;51.094;5.880;2023-03-01T01:33:28;-2.18;118.99
66102;HTU21D;52883;51.094;5.880;2023-03-01T01:35:54;-2.16;118.99
66102;HTU21D;52883;51.094;5.880;2023-03-01T01:38:20;-2.16;118.99
66102;HTU21D;52883;51.094;5.880;2023-03-01T01:40:48;-2.13;118.99
66102;HTU21D;52883;51.094;5.880;2023-03-01T01:43:24;-2.17;118.99
66102;HTU21D;52883;51.094;5.880;2023-03-01T01:45:55;-2.22;118.99
66102;HTU21D;52883;51.094;5.880;2023-03-01T01:48:24;-2.28;118.99
66102;HTU21D;52883;51.094;5.880;2023-03-01T01:51:09;-2.30;118.99
66102;HTU21D;52883;51.094;5.880;2023-03-01T01:53:38;-2.33;118.99
66102;HTU21D;52883;51.094;5.880;2023-03-01T01:56:08;-2.39;118.99
66102;HTU21D;52883;51.094;5.880;2023-03-01T01:58:37;-2.48;118.99
66102;HTU21D;52883;51.094;5.880;2023-03-01T02:01:04;-2.58;118.99
66102;HTU21D;52883;51.094;5.880;2023-03-01T02:03:33;-2.73;118.99
66102;HTU21D;52883;51.094;5.880;2023-03-01T02:09:00;-2.84;118.99
66102;HTU21D;52883;51.094;5.880;2023-03-01T02:11:30;-2.88;118.99
66102;HTU21D;52883;51.094;5.880;2023-03-01T02:13:56;-2.98;118.99
66102;HTU21D;52883;51.094;5.880;2023-03-01T02:16:22;-3.07;118.99
66102;HTU21D;52883;51.094;5.880;2023-03-01T02:18:49;-3.10;118.99
66102;HTU21D;52883;51.094;5.880;2023-03-01T02:21:50;-3.17;118.99
66102;HTU21D;52883;51.094;5.880;2023-03-01T02:24:45;-3.13;118.99
66102;HTU21D;52883;51.094;5.880;2023-03-01T02:27:16;-3.10;118.99
66102;HTU21D;52883;51.094;5.880;2023-03-01T02:29:43;-3.05;118.99
66102;HTU21D;52883;51.094;5.880;2023-03-01T02:32:12;-3.06;118.99
66102;HTU21D;52883;51.094;5.880;2023-03-01T02:34:38;-3.10;118.99
66102;HTU21D;52883;51.094;5.880;2023-03-01T02:37:10;-3.13;118.99
66102;HTU21D;52883;51.094;5.880;2023-03-01T02:39:43;-3.06;118.99
66102;HTU21D;52883;51.094;5.880;2023-03-01T02:42:15;-2.94;118.99
66102;HTU21D;52883;51.094;5.880;2023-03-01T02:44:42;-2.89;118.99
66102;HTU21D;52883;51.094;5.880;2023-03-01T02:47:08;-2.87;118.99
66102;HTU21D;52883;51.094;5.880;2023-03-01T02:49:36;-2.89;118.99
66102;HTU21D;52883;51.094;5.880;2023-03-01T02:52:34;-2.82;118.99
66102;HTU21D;52883;51.094;5.880;2023-03-01T02:55:14;-2.76;118.99
66102;HTU21D;52883;51.094;5.880;2023-03-01T02:57:44;-2.78;118.99
66102;HTU21D;52883;51.094;5.880;2023-03-01T03:00:19;-2.77;118.99
66102;HTU21D;52883;51.094;5.880;2023-03-01T03:02:49;-2.81;118.99
66102;HTU21D;52883;51.094;5.880;2023-03-01T03:05:30;-2.88;118.99
66102;HTU21D;52883;51.094;5.880;2023-03-01T03:07:59;-2.87;118.99
66102;HTU21D;52883;51.094;5.880;2023-03-01T03:10:30;-2.87;118.99
66102;HTU21D;52883;51.094;5.880;2023-03-01T03:12:59;-2.83;118.99
66102;HTU21D;52883;51.094;5.880;2023-03-01T03:15:28;-2.83;118.99
66102;HTU21D;52883;51.094;5.880;2023-03-01T03:17:55;-2.84;118.99
66102;HTU21D;52883;51.094;5.880;2023-03-01T03:20:24;-2.81;118.99
66102;HTU21D;52883;51.094;5.880;2023-03-01T03:22:53;-2.77;118.99
66102;HTU21D;52883;51.094;5.880;2023-03-01T03:25:21;-2.77;118.99
66102;HTU21D;52883;51.094;5.880;2023-03-01T03:27:50;-2.76;118.99
66102;HTU21D;52883;51.094;5.880;2023-03-01T03:30:24;-2.81;118.99
66102;HTU21D;52883;51.094;5.880;2023-03-01T03:32:50;-2.81;118.99
66102;HTU21D;52883;51.094;5.880;2023-03-01T03:35:25;-2.84;118.99
66102;HTU21D;52883;51.094;5.880;2023-03-01T03:37:51;-2.81;118.99
66102;HTU21D;52883;51.094;5.880;2023-03-01T03:40:39;-2.88;118.99
66102;HTU21D;52883;51.094;5.880;2023-03-01T03:43:08;-2.89;118.99
66102;HTU21D;52883;51.094;5.880;2023-03-01T03:45:34;-2.92;118.99
66102;HTU21D;52883;51.094;5.880;2023-03-01T03:48:02;-3.02;118.99
66102;HTU21D;52883;51.094;5.880;2023-03-01T03:50:29;-3.03;118.99
66102;HTU21D;52883;51.094;5.880;2023-03-01T03:52:54;-3.04;118.99
66102;HTU21D;52883;51.094;5.880;2023-03-01T03:55:20;-3.10;118.99
66102;HTU21D;52883;51.094;5.880;2023-03-01T03:57:49;-3.10;118.99
66102;HTU21D;52883;51.094;5.880;2023-03-01T04:00:21;-3.18;118.99
66102;HTU21D;52883;51.094;5.880;2023-03-01T04:02:50;-3.16;118.99
66102;HTU21D;52883;51.094;5.880;2023-03-01T04:05:17;-3.09;118.99
66102;HTU21D;52883;51.094;5.880;2023-03-01T04:07:44;-3.08;118.99
66102;HTU21D;52883;51.094;5.880;2023-03-01T04:10:16;-3.15;118.99
66102;HTU21D;52883;51.094;5.880;2023-03-01T04:12:41;-3.12;118.99
66102;HTU21D;52883;51.094;5.880;2023-03-01T04:15:11;-3.11;118.99
66102;HTU21D;52883;51.094;5.880;2023-03-01T04:17:44;-3.02;118.99
66102;HTU21D;52883;51.094;5.880;2023-03-01T04:20:15;-3.03;118.99
66102;HTU21D;52883;51.094;5.880;2023-03-01T04:25:23;-3.15;118.99
66102;HTU21D;52883;51.094;5.880;2023-03-01T04:27:51;-3.20;118.99
66102;HTU21D;52883;51.094;5.880;2023-03-01T04:30:17;-3.23;118.99
66102;HTU21D;52883;51.094;5.880;2023-03-01T04:32:43;-3.21;118.99
66102;HTU21D;52883;51.094;5.880;2023-03-01T04:35:09;-3.25;118.99
66102;HTU21D;52883;51.094;5.880;2023-03-01T04:37:34;-3.30;118.99
66102;HTU21D;52883;51.094;5.880;2023-03-01T04:40:02;-3.27;118.99
66102;HTU21D;52883;51.094;5.880;2023-03-01T04:42:37;-3.27;118.99
66102;HTU21D;52883;51.094;5.880;2023-03-01T04:45:04;-3.27;118.99
66102;HTU21D;52883;51.094;5.880;2023-03-01T04:47:42;-3.22;118.99
66102;HTU21D;52883;51.094;5.880;2023-03-01T04:50:12;-3.18;118.99
66102;HTU21D;52883;51.094;5.880;2023-03-01T04:52:38;-3.17;118.99
66102;HTU21D;52883;51.094;5.880;2023-03-01T04:55:04;-3.16;118.99
66102;HTU21D;52883;51.094;5.880;2023-03-01T04:57:31;-3.08;118.99
66102;HTU21D;52883;51.094;5.880;2023-03-01T04:59:57;-3.09;118.99
66102;HTU21D;52883;51.094;5.880;2023-03-01T05:02:23;-3.19;118.99
66102;HTU21D;52883;51.094;5.880;2023-03-01T05:04:48;-3.20;118.99
66102;HTU21D;52883;51.094;5.880;2023-03-01T05:07:14;-3.23;118.99
66102;HTU21D;52883;51.094;5.880;2023-03-01T05:09:46;-3.20;118.99
66102;HTU21D;52883;51.094;5.880;2023-03-01T05:12:12;-3.27;118.99
66102;HTU21D;52883;51.094;5.880;2023-03-01T05:14:38;-3.22;118.99
66102;HTU21D;52883;51.094;5.880;2023-03-01T05:17:04;-3.19;118.99
66102;HTU21D;52883;51.094;5.880;2023-03-01T05:19:30;-3.20;118.99
66102;HTU21D;52883;51.094;5.880;2023-03-01T05:21:57;-3.24;118.99
66102;HTU21D;52883;51.094;5.880;2023-03-01T05:24:34;-3.27;118.99
66102;HTU21D;52883;51.094;5.880;2023-03-01T05:27:01;-3.18;118.99
66102;HTU21D;52883;51.094;5.880;2023-03-01T05:29:29;-3.17;118.99
66102;HTU21D;52883;51.094;5.880;2023-03-01T05:31:59;-3.21;118.99
66102;HTU21D;52883;51.094;5.880;2023-03-01T05:34:32;-3.18;118.99
66102;HTU21D;52883;51.094;5.880;2023-03-01T05:36:59;-3.18;118.99
66102;HTU21D;52883;51.094;5.880;2023-03-01T05:39:26;-3.21;118.99
66102;HTU21D;52883;51.094;5.880;2023-03-01T05:41:57;-3.19;118.99
66102;HTU21D;52883;51.094;5.880;2023-03-01T05:44:24;-3.16;118.99
66102;HTU21D;52883;51.094;5.880;2023-03-01T05:46:51;-3.16;118.99
66102;HTU21D;52883;51.094;5.880;2023-03-01T05:49:17;-3.10;118.99
66102;HTU21D;52883;51.094;5.880;2023-03-01T05:51:48;-3.13;118.99
66102;HTU21D;52883;51.094;5.880;2023-03-01T05:54:14;-3.13;118.99
66102;HTU21D;52883;51.094;5.880;2023-03-01T05:56:40;-3.10;118.99
66102;HTU21D;52883;51.094;5.880;2023-03-01T05:59:06;-3.18;118.99
66102;HTU21D;52883;51.094;5.880;2023-03-01T06:01:32;-3.19;118.99
66102;HTU21D;52883;51.094;5.880;2023-03-01T06:03:58;-3.22;118.99
66102;HTU21D;52883;51.094;5.880;2023-03-01T06:06:25;-3.26;118.99
66102;HTU21D;52883;51.094;5.880;2023-03-01T06:08:51;-3.33;118.99
66102;HTU21D;52883;51.094;5.880;2023-03-01T06:11:17;-3.42;118.99
66102;HTU21D;52883;51.094;5.880;2023-03-01T06:13:43;-3.53;118.99
66102;HTU21D;52883;51.094;5.880;2023-03-01T06:16:10;-3.54;118.99
66102;HTU21D;52883;51.094;5.880;2023-03-01T06:18:37;-3.58;118.99
66102;HTU21D;52883;51.094;5.880;2023-03-01T06:21:04;-3.56;118.99
66102;HTU21D;52883;51.094;5.880;2023-03-01T06:23:30;-3.56;118.99
66102;HTU21D;52883;51.094;5.880;2023-03-01T06:25:55;-3.62;118.99
66102;HTU21D;52883;51.094;5.880;2023-03-01T06:28:21;-3.67;118.99
66102;HTU21D;52883;51.094;5.880;2023-03-01T06:30:48;-3.66;118.99
66102;HTU21D;52883;51.094;5.880;2023-03-01T06:33:14;-3.77;118.99
66102;HTU21D;52883;51.094;5.880;2023-03-01T06:35:40;-3.79;118.99
66102;HTU21D;52883;51.094;5.880;2023-03-01T06:38:07;-3.74;118.99
66102;HTU21D;52883;51.094;5.880;2023-03-01T06:40:33;-3.72;118.99
66102;HTU21D;52883;51.094;5.880;2023-03-01T06:43:00;-3.67;118.99
66102;HTU21D;52883;51.094;5.880;2023-03-01T06:45:26;-3.67;118.99
66102;HTU21D;52883;51.094;5.880;2023-03-01T06:47:52;-3.60;118.99
66102;HTU21D;52883;51.094;5.880;2023-03-01T06:50:18;-3.52;118.99
66102;HTU21D;52883;51.094;5.880;2023-03-01T06:52:44;-3.41;118.99
66102;HTU21D;52883;51.094;5.880;2023-03-01T06:55:11;-3.30;118.99
66102;HTU21D;52883;51.094;5.880;2023-03-01T06:57:37;-3.03;118.99
66102;HTU21D;52883;51.094;5.880;2023-03-01T07:00:04;-2.81;118.99
66102;HTU21D;52883;51.094;5.880;2023-03-01T07:02:30;-2.52;118.99
66102;HTU21D;52883;51.094;5.880;2023-03-01T07:04:56;-2.21;118.99
66102;HTU21D;52883;51.094;5.880;2023-03-01T07:07:21;-1.89;118.99
66102;HTU21D;52883;51.094;5.880;2023-03-01T07:09:48;-1.67;118.99
66102;HTU21D;52883;51.094;5.880;2023-03-01T07:12:14;-1.80;118.99
66102;HTU21D;52883;51.094;5.880;2023-03-01T07:14:40;-1.87;118.99
66102;HTU21D;52883;51.094;5.880;2023-03-01T07:17:05;-1.76;118.99
66102;HTU21D;52883;51.094;5.880;2023-03-01T07:19:32;-1.62;118.99
66102;HTU21D;52883;51.094;5.880;2023-03-01T07:21:58;-1.58;118.99
66102;HTU21D;52883;51.094;5.880;2023-03-01T07:24:23;-1.53;118.99
66102;HTU21D;52883;51.094;5.880;2023-03-01T07:26:50;-1.43;118.99
66102;HTU21D;52883;51.094;5.880;2023-03-01T07:29:16;-1.54;118.99
66102;HTU21D;52883;51.094;5.880;2023-03-01T07:31:42;-1.63;118.99
66102;HTU21D;52883;51.094;5.880;2023-03-01T07:34:08;-1.43;118.99
66102;HTU21D;52883;51.094;5.880;2023-03-01T07:36:33;-1.11;118.99
66102;HTU21D;52883;51.094;5.880;2023-03-01T07:38:59;-0.74;118.99
66102;HTU21D;52883;51.094;5.880;2023-03-01T07:41:27;-0.42;118.99
66102;HTU21D;52883;51.094;5.880;2023-03-01T07:43:53;-0.30;118.99
66102;HTU21D;52883;51.094;5.880;2023-03-01T07:46:19;-0.49;118.99
66102;HTU21D;52883;51.094;5.880;2023-03-01T07:48:44;-0.56;118.99
66102;HTU21D;52883;51.094;5.880;2023-03-01T07:51:10;-0.37;118.99
66102;HTU21D;52883;51.094;5.880;2023-03-01T07:53:36;-0.21;118.99
66102;HTU21D;52883;51.094;5.880;2023-03-01T07:56:11;0.25;118.99
66102;HTU21D;52883;51.094;5.880;2023-03-01T07:58:39;0.58;118.99
66102;HTU21D;52883;51.094;5.880;2023-03-01T08:01:07;0.57;118.99
66102;HTU21D;52883;51.094;5.880;2023-03-01T08:03:33;0.22;118.99
66102;HTU21D;52883;51.094;5.880;2023-03-01T08:06:00;0.21;118.99
66102;HTU21D;52883;51.094;5.880;2023-03-01T08:08:25;0.35;118.99
66102;HTU21D;52883;51.094;5.880;2023-03-01T08:10:52;0.32;118.99
66102;HTU21D;52883;51.094;5.880;2023-03-01T08:13:17;0.30;118.99
66102;HTU21D;52883;51.094;5.880;2023-03-01T08:15:51;0.51;118.99
66102;HTU21D;52883;51.094;5.880;2023-03-01T08:18:17;0.72;118.99
66102;HTU21D;52883;51.094;5.880;2023-03-01T08:20:44;0.95;118.99
66102;HTU21D;52883;51.094;5.880;2023-03-01T08:23:10;1.42;118.99
66102;HTU21D;52883;51.094;5.880;2023-03-01T08:25:35;1.70;118.99
66102;HTU21D;52883;51.094;5.880;2023-03-01T08:28:01;1.82;113.04
66102;HTU21D;52883;51.094;5.880;2023-03-01T08:30:27;1.85;118.81
66102;HTU21D;52883;51.094;5.880;2023-03-01T08:32:53;1.70;118.99
66102;HTU21D;52883;51.094;5.880;2023-03-01T08:35:19;1.63;118.99
66102;HTU21D;52883;51.094;5.880;2023-03-01T08:37:45;1.54;118.99
66102;HTU21D;52883;51.094;5.880;2023-03-01T08:40:11;1.48;118.99
66102;HTU21D;52883;51.094;5.880;2023-03-01T08:42:41;1.49;118.99
66102;HTU21D;52883;51.094;5.880;2023-03-01T08:45:09;1.65;118.99
66102;HTU21D;52883;51.094;5.880;2023-03-01T08:47:36;2.00;118.99
66102;HTU21D;52883;51.094;5.880;2023-03-01T08:50:03;2.46;118.99
66102;HTU21D;52883;51.094;5.880;2023-03-01T08:52:28;2.75;108.86
66102;HTU21D;52883;51.094;5.880;2023-03-01T08:54:55;2.82;108.91
66102;HTU21D;52883;51.094;5.880;2023-03-01T08:57:22;3.05;118.99
66102;HTU21D;52883;51.094;5.880;2023-03-01T08:59:47;3.30;107.25
66102;HTU21D;52883;51.094;5.880;2023-03-01T09:02:16;3.46;107.75
66102;HTU21D;52883;51.094;5.880;2023-03-01T09:04:42;3.74;117.05
66102;HTU21D;52883;51.094;5.880;2023-03-01T09:07:09;4.03;112.45
66102;HTU21D;52883;51.094;5.880;2023-03-01T09:09:34;4.14;105.43
66102;HTU21D;52883;51.094;5.880;2023-03-01T09:12:00;4.28;109.55
66102;HTU21D;52883;51.094;5.880;2023-03-01T09:14:26;4.16;104.76
66102;HTU21D;52883;51.094;5.880;2023-03-01T09:16:52;4.05;108.23
66102;HTU21D;52883;51.094;5.880;2023-03-01T09:19:17;3.97;103.03
66102;HTU21D;52883;51.094;5.880;2023-03-01T09:21:43;3.85;109.21
66102;HTU21D;52883;51.094;5.880;2023-03-01T09:24:20;3.92;96.36
66102;HTU21D;52883;51.094;5.880;2023-03-01T09:26:46;3.95;106.83
66102;HTU21D;52883;51.094;5.880;2023-03-01T09:29:13;3.99;101.12
66102;HTU21D;52883;51.094;5.880;2023-03-01T09:31:40;4.14;118.99
66102;HTU21D;52883;51.094;5.880;2023-03-01T09:34:06;4.43;105.95
66102;HTU21D;52883;51.094;5.880;2023-03-01T09:36:32;4.58;101.20
66102;HTU21D;52883;51.094;5.880;2023-03-01T09:38:59;4.75;90.69
66102;HTU21D;52883;51.094;5.880;2023-03-01T09:41:49;4.91;91.72
66102;HTU21D;52883;51.094;5.880;2023-03-01T09:44:38;5.05;96.69
66102;HTU21D;52883;51.094;5.880;2023-03-01T09:47:20;5.01;95.04
66102;HTU21D;52883;51.094;5.880;2023-03-01T09:52:43;5.24;101.92
66102;HTU21D;52883;51.094;5.880;2023-03-01T09:55:25;5.40;100.34
66102;HTU21D;52883;51.094;5.880;2023-03-01T09:58:17;5.75;75.47
66102;HTU21D;52883;51.094;5.880;2023-03-01T10:00:49;5.89;75.21
66102;HTU21D;52883;51.094;5.880;2023-03-01T10:03:23;5.95;88.51
66102;HTU21D;52883;51.094;5.880;2023-03-01T10:09:10;6.14;85.49
66102;HTU21D;52883;51.094;5.880;2023-03-01T10:11:41;6.38;88.71
66102;HTU21D;52883;51.094;5.880;2023-03-01T10:19:41;6.87;76.82
66102;HTU21D;52883;51.094;5.880;2023-03-01T10:22:18;7.34;80.02
66102;HTU21D;52883;51.094;5.880;2023-03-01T10:24:47;7.43;73.65
66102;HTU21D;52883;51.094;5.880;2023-03-01T10:27:28;7.56;72.30
66102;HTU21D;52883;51.094;5.880;2023-03-01T10:30:50;7.69;59.70
66102;HTU21D;52883;51.094;5.880;2023-03-01T10:32:53;7.69;67.84
66102;HTU21D;52883;51.094;5.880;2023-03-01T10:35:26;7.58;66.62
66102;HTU21D;52883;51.094;5.880;2023-03-01T10:38:02;7.64;61.47
66102;HTU21D;52883;51.094;5.880;2023-03-01T10:40:28;7.82;57.49
66102;HTU21D;52883;51.094;5.880;2023-03-01T10:42:58;7.85;59.95
66102;HTU21D;52883;51.094;5.880;2023-03-01T10:51:04;7.90;54.51
66102;HTU21D;52883;51.094;5.880;2023-03-01T10:53:37;7.79;55.26
66102;HTU21D;52883;51.094;5.880;2023-03-01T10:56:11;8.02;56.12
66102;HTU21D;52883;51.094;5.880;2023-03-01T10:59:01;7.96;55.08
66102;HTU21D;52883;51.094;5.880;2023-03-01T11:01:35;8.08;56.36
66102;HTU21D;52883;51.094;5.880;2023-03-01T11:06:38;8.58;53.94
66102;HTU21D;52883;51.094;5.880;2023-03-01T11:09:24;8.53;53.25
66102;HTU21D;52883;51.094;5.880;2023-03-01T11:11:59;8.39;50.93
66102;HTU21D;52883;51.094;5.880;2023-03-01T11:14:29;8.37;51.33
66102;HTU21D;52883;51.094;5.880;2023-03-01T11:17:17;8.39;51.46
66102;HTU21D;52883;51.094;5.880;2023-03-01T11:20:05;8.49;53.49
66102;HTU21D;52883;51.094;5.880;2023-03-01T11:22:34;8.52;51.56
66102;HTU21D;52883;51.094;5.880;2023-03-01T11:25:01;8.50;52.71
66102;HTU21D;52883;51.094;5.880;2023-03-01T11:27:32;8.77;52.42
66102;HTU21D;52883;51.094;5.880;2023-03-01T11:30:18;9.02;53.55
66102;HTU21D;52883;51.094;5.880;2023-03-01T11:32:54;9.07;50.85
66102;HTU21D;52883;51.094;5.880;2023-03-01T11:35:27;9.09;51.30
66102;HTU21D;52883;51.094;5.880;2023-03-01T11:40:32;9.47;52.75
66102;HTU21D;52883;51.094;5.880;2023-03-01T11:46:13;9.49;48.77
66102;HTU21D;52883;51.094;5.880;2023-03-01T11:54:52;9.69;50.53
66102;HTU21D;52883;51.094;5.880;2023-03-01T12:00:26;9.79;49.67
66102;HTU21D;52883;51.094;5.880;2023-03-01T12:08:26;9.77;46.34
66102;HTU21D;52883;51.094;5.880;2023-03-01T12:13:59;9.95;51.94
66102;HTU21D;52883;51.094;5.880;2023-03-01T12:19:29;10.33;47.96
66102;HTU21D;52883;51.094;5.880;2023-03-01T12:25:25;10.24;48.48
66102;HTU21D;52883;51.094;5.880;2023-03-01T12:31:12;10.49;46.33
66102;HTU21D;52883;51.094;5.880;2023-03-01T12:47:58;10.05;50.04
66102;HTU21D;52883;51.094;5.880;2023-03-01T12:50:54;10.12;44.68
66102;HTU21D;52883;51.094;5.880;2023-03-01T12:56:01;10.05;48.70
66102;HTU21D;52883;51.094;5.880;2023-03-01T13:07:04;10.50;44.90
66102;HTU21D;52883;51.094;5.880;2023-03-01T13:09:40;10.48;43.28
66102;HTU21D;52883;51.094;5.880;2023-03-01T13:17:56;10.62;43.10
66102;HTU21D;52883;51.094;5.880;2023-03-01T13:26:14;10.21;44.25
66102;HTU21D;52883;51.094;5.880;2023-03-01T13:33:47;10.26;45.38
66102;HTU21D;52883;51.094;5.880;2023-03-01T13:39:00;10.40;44.65
66102;HTU21D;52883;51.094;5.880;2023-03-01T13:46:51;10.20;43.85
66102;HTU21D;52883;51.094;5.880;2023-03-01T13:49:22;10.06;44.02
66102;HTU21D;52883;51.094;5.880;2023-03-01T13:51:50;10.18;43.70
66102;HTU21D;52883;51.094;5.880;2023-03-01T13:54:31;10.13;42.98
66102;HTU21D;52883;51.094;5.880;2023-03-01T13:56:59;10.10;44.11
66102;HTU21D;52883;51.094;5.880;2023-03-01T13:59:26;9.99;40.52
66102;HTU21D;52883;51.094;5.880;2023-03-01T14:01:59;10.03;44.09
66102;HTU21D;52883;51.094;5.880;2023-03-01T14:04:27;9.98;40.36
66102;HTU21D;52883;51.094;5.880;2023-03-01T14:09:39;9.90;42.70
66102;HTU21D;52883;51.094;5.880;2023-03-01T14:12:26;9.83;41.11
66102;HTU21D;52883;51.094;5.880;2023-03-01T14:20:27;9.34;43.77
66102;HTU21D;52883;51.094;5.880;2023-03-01T14:22:59;9.26;44.14
66102;HTU21D;52883;51.094;5.880;2023-03-01T14:25:33;9.40;43.45
66102;HTU21D;52883;51.094;5.880;2023-03-01T14:28:23;9.45;42.59
66102;HTU21D;52883;51.094;5.880;2023-03-01T14:30:52;9.34;43.35
66102;HTU21D;52883;51.094;5.880;2023-03-01T14:38:46;9.31;43.71
66102;HTU21D;52883;51.094;5.880;2023-03-01T14:41:22;9.04;43.45
66102;HTU21D;52883;51.094;5.880;2023-03-01T14:43:59;8.75;44.09
66102;HTU21D;52883;51.094;5.880;2023-03-01T14:46:40;8.48;45.18
66102;HTU21D;52883;51.094;5.880;2023-03-01T14:49:20;8.24;45.26
66102;HTU21D;52883;51.094;5.880;2023-03-01T14:52:02;7.88;45.42
66102;HTU21D;52883;51.094;5.880;2023-03-01T14:57:22;7.57;46.80
66102;HTU21D;52883;51.094;5.880;2023-03-01T14:59:52;7.53;47.34
66102;HTU21D;52883;51.094;5.880;2023-03-01T15:02:26;7.42;47.12
66102;HTU21D;52883;51.094;5.880;2023-03-01T15:05:00;7.32;47.61
66102;HTU21D;52883;51.094;5.880;2023-03-01T15:07:31;7.25;47.94
66102;HTU21D;52883;51.094;5.880;2023-03-01T15:09:58;7.20;47.52
66102;HTU21D;52883;51.094;5.880;2023-03-01T15:12:44;7.16;47.88
66102;HTU21D;52883;51.094;5.880;2023-03-01T15:15:37;7.08;48.12
66102;HTU21D;52883;51.094;5.880;2023-03-01T15:18:15;7.07;48.66
66102;HTU21D;52883;51.094;5.880;2023-03-01T15:20:41;6.99;48.53
66102;HTU21D;52883;51.094;5.880;2023-03-01T15:23:23;6.95;49.27
66102;HTU21D;52883;51.094;5.880;2023-03-01T15:25:51;6.94;48.40
66102;HTU21D;52883;51.094;5.880;2023-03-01T15:30:57;6.87;49.19
66102;HTU21D;52883;51.094;5.880;2023-03-01T15:33:38;6.85;49.52
66102;HTU21D;52883;51.094;5.880;2023-03-01T15:36:39;6.80;50.09
66102;HTU21D;52883;51.094;5.880;2023-03-01T15:39:05;6.79;49.41
66102;HTU21D;52883;51.094;5.880;2023-03-01T15:41:49;6.75;50.21
66102;HTU21D;52883;51.094;5.880;2023-03-01T15:44:27;6.70;50.18
66102;HTU21D;52883;51.094;5.880;2023-03-01T15:46:53;6.67;50.80
66102;HTU21D;52883;51.094;5.880;2023-03-01T15:51:55;6.59;50.67
66102;HTU21D;52883;51.094;5.880;2023-03-01T15:54:24;6.55;50.95
66102;HTU21D;52883;51.094;5.880;2023-03-01T15:56:50;6.52;51.69
66102;HTU21D;52883;51.094;5.880;2023-03-01T15:59:17;6.50;51.89
66102;HTU21D;52883;51.094;5.880;2023-03-01T16:01:44;6.50;52.30
66102;HTU21D;52883;51.094;5.880;2023-03-01T16:04:11;6.39;51.24
66102;HTU21D;52883;51.094;5.880;2023-03-01T16:06:50;6.41;52.32
66102;HTU21D;52883;51.094;5.880;2023-03-01T16:09:21;6.35;52.65
66102;HTU21D;52883;51.094;5.880;2023-03-01T16:11:47;6.30;52.63
66102;HTU21D;52883;51.094;5.880;2023-03-01T16:14:13;6.30;52.59
66102;HTU21D;52883;51.094;5.880;2023-03-01T16:16:40;6.26;52.57
66102;HTU21D;52883;51.094;5.880;2023-03-01T16:19:05;6.23;52.77
66102;HTU21D;52883;51.094;5.880;2023-03-01T16:21:31;6.21;53.42
66102;HTU21D;52883;51.094;5.880;2023-03-01T16:23:56;6.13;52.39
66102;HTU21D;52883;51.094;5.880;2023-03-01T16:26:22;6.09;52.91
66102;HTU21D;52883;51.094;5.880;2023-03-01T16:28:48;6.05;53.17
66102;HTU21D;52883;51.094;5.880;2023-03-01T16:31:20;5.99;52.89
66102;HTU21D;52883;51.094;5.880;2023-03-01T16:33:46;5.97;53.65
66102;HTU21D;52883;51.094;5.880;2023-03-01T16:36:17;5.90;53.83
66102;HTU21D;52883;51.094;5.880;2023-03-01T16:38:43;5.79;54.38
66102;HTU21D;52883;51.094;5.880;2023-03-01T16:41:17;5.67;55.12
66102;HTU21D;52883;51.094;5.880;2023-03-01T16:43:44;5.57;55.60
66102;HTU21D;52883;51.094;5.880;2023-03-01T16:46:28;5.53;55.87
66102;HTU21D;52883;51.094;5.880;2023-03-01T16:48:55;5.53;55.65
66102;HTU21D;52883;51.094;5.880;2023-03-01T16:51:22;5.51;56.02
66102;HTU21D;52883;51.094;5.880;2023-03-01T16:53:49;5.45;55.97
66102;HTU21D;52883;51.094;5.880;2023-03-01T16:56:16;5.33;55.84
66102;HTU21D;52883;51.094;5.880;2023-03-01T16:58:42;5.27;55.78
66102;HTU21D;52883;51.094;5.880;2023-03-01T17:01:11;5.23;56.22
66102;HTU21D;52883;51.094;5.880;2023-03-01T17:03:38;5.17;56.36
66102;HTU21D;52883;51.094;5.880;2023-03-01T17:06:07;5.11;57.30
66102;HTU21D;52883;51.094;5.880;2023-03-01T17:08:33;5.00;56.90
66102;HTU21D;52883;51.094;5.880;2023-03-01T17:11:08;4.88;57.61
66102;HTU21D;52883;51.094;5.880;2023-03-01T17:13:35;4.80;57.96
66102;HTU21D;52883;51.094;5.880;2023-03-01T17:16:14;4.75;58.21
66102;HTU21D;52883;51.094;5.880;2023-03-01T17:18:40;4.64;58.56
66102;HTU21D;52883;51.094;5.880;2023-03-01T17:21:07;4.64;59.06
66102;HTU21D;52883;51.094;5.880;2023-03-01T17:23:35;4.54;59.51
66102;HTU21D;52883;51.094;5.880;2023-03-01T17:26:02;4.41;59.97
66102;HTU21D;52883;51.094;5.880;2023-03-01T17:28:29;4.33;60.78
66102;HTU21D;52883;51.094;5.880;2023-03-01T17:30:56;4.27;60.78
66102;HTU21D;52883;51.094;5.880;2023-03-01T17:33:21;4.26;61.14
66102;HTU21D;52883;51.094;5.880;2023-03-01T17:35:47;4.23;61.38
66102;HTU21D;52883;51.094;5.880;2023-03-01T17:38:14;4.15;62.06
66102;HTU21D;52883;51.094;5.880;2023-03-01T17:40:41;4.07;62.18